createdAt,value
2023-01-19T00:01:55.480Z,99072.19
2023-01-19T00:11:57.752Z,99070.47
2023-01-19T00:22:00.037Z,99066.94
2023-01-19T00:32:03.855Z,99076.59
2023-01-19T00:42:25.688Z,99069.22
2023-01-19T00:52:27.960Z,99061.75
2023-01-19T01:02:30.389Z,99082.84
2023-01-19T01:12:32.573Z,99079.28
2023-01-19T01:22:34.871Z,99076.44
2023-01-19T01:32:37.096Z,99083.72
2023-01-19T01:42:40.620Z,99087.28
2023-01-19T01:53:08.138Z,99103.56
2023-01-19T02:03:10.863Z,99085.19
2023-01-19T02:13:20.029Z,99082.38
2023-01-19T02:23:38.057Z,99089.22
2023-01-19T02:33:40.322Z,99084.81
2023-01-19T02:43:43.038Z,99075.13
2023-01-19T02:53:53.347Z,99061.19
2023-01-19T03:04:13.432Z,99056.31
2023-01-19T03:14:21.306Z,99061.59
2023-01-19T03:24:25.319Z,99061.31
2023-01-19T03:34:28.566Z,99051.28
2023-01-19T03:44:32.561Z,99055.78
2023-01-19T03:54:34.793Z,99068.91
2023-01-19T04:04:36.857Z,99058.63
2023-01-19T04:14:40.234Z,99068.38
2023-01-19T04:24:42.330Z,99064.34
2023-01-19T04:34:44.489Z,99067.50
2023-01-19T04:44:46.814Z,99050.88
2023-01-19T04:54:49.080Z,99056.41
2023-01-19T05:04:51.795Z,99056.53
2023-01-19T05:14:54.049Z,99050.75
2023-01-19T05:24:56.164Z,99056.06
2023-01-19T05:34:58.413Z,99065.75
2023-01-19T05:45:00.734Z,99072.56
2023-01-19T05:55:03.007Z,99078.63
2023-01-19T06:05:05.712Z,99081.44
2023-01-19T06:15:08.266Z,99095.50
2023-01-19T06:25:10.948Z,99088.03
2023-01-19T06:35:13.832Z,99104.59
2023-01-19T06:45:16.567Z,99117.53
2023-01-19T06:55:18.885Z,99129.47
2023-01-19T07:05:22.168Z,99139.84
2023-01-19T07:15:24.697Z,99169.16
2023-01-19T07:25:27.209Z,99172.09
2023-01-19T07:35:29.747Z,99182.22
2023-01-19T07:45:31.820Z,99206.69
2023-01-19T07:55:34.047Z,99222.97
2023-01-19T08:05:37.105Z,99228.00
2023-01-19T08:15:39.249Z,99258.53
2023-01-19T08:25:44.313Z,99261.50
2023-01-19T08:35:52.392Z,99271.19
2023-01-19T08:45:56.484Z,99288.88
2023-01-19T08:56:02.287Z,99295.75
2023-01-19T09:06:08.218Z,99317.31
2023-01-19T09:16:12.820Z,99327.94
2023-01-19T09:26:15.258Z,99351.69
2023-01-19T09:36:17.604Z,99373.41
2023-01-19T09:46:24.390Z,99372.16
2023-01-19T09:56:28.192Z,99392.44
2023-01-19T10:06:30.644Z,99409.09
2023-01-19T10:16:52.527Z,99415.66
2023-01-19T10:26:56.307Z,99424.94
2023-01-19T10:37:04.876Z,99431.16
2023-01-19T10:47:16.912Z,99438.81
2023-01-19T10:57:26.326Z,99447.09
2023-01-19T11:07:33.513Z,99449.59
2023-01-19T11:17:35.781Z,99452.16
2023-01-19T11:27:38.297Z,99456.44
2023-01-19T11:37:43.002Z,99451.72
2023-01-19T11:47:49.417Z,99457.13
2023-01-19T11:57:54.520Z,99467.63
2023-01-19T12:07:59.385Z,99463.94
2023-01-19T12:18:03.415Z,99467.75
2023-01-19T12:28:11.131Z,99466.84
2023-01-19T12:38:44.475Z,99473.31
2023-01-19T12:48:46.998Z,99473.03
2023-01-19T12:58:49.875Z,99470.56
2023-01-19T13:08:59.849Z,99478.44
2023-01-19T13:19:15.913Z,99479.34
2023-01-19T13:29:33.854Z,99485.16
2023-01-19T13:39:38.141Z,99490.34
2023-01-19T13:49:44.803Z,99488.63
2023-01-19T14:00:20.904Z,99496.56
2023-01-19T14:10:23.200Z,99517.50
2023-01-19T14:20:30.443Z,99522.47
2023-01-19T14:30:35.040Z,99526.81
2023-01-19T14:40:38.387Z,99540.47
2023-01-19T14:50:42.824Z,99548.22
2023-01-19T15:00:49.569Z,99563.28
2023-01-19T15:10:51.845Z,99558.94
2023-01-19T15:21:02.960Z,99572.56
2023-01-19T15:31:05.775Z,99580.78
2023-01-19T15:41:24.207Z,99581.59
2023-01-19T15:51:27.544Z,99581.31
2023-01-19T16:01:35.238Z,99593.63
2023-01-19T16:11:38.569Z,99596.16
2023-01-19T16:21:43.047Z,99607.13
2023-01-19T16:31:45.810Z,99628.22
2023-01-19T16:41:49.390Z,99625.03
2023-01-19T16:51:53.737Z,99641.22
2023-01-19T17:01:57.224Z,99656.00
2023-01-19T17:12:04.743Z,99673.97
2023-01-19T17:22:10.133Z,99677.59
2023-01-19T17:32:12.841Z,99670.34
2023-01-19T17:42:15.272Z,99685.78
2023-01-19T17:52:18.502Z,99687.31
2023-01-19T18:02:24.549Z,99685.47
2023-01-19T18:12:26.791Z,99689.13
2023-01-19T18:22:28.954Z,99696.59
2023-01-19T18:32:31.077Z,99691.53
2023-01-19T18:42:33.945Z,99702.03
2023-01-19T18:52:36.316Z,99710.31
2023-01-19T19:02:38.586Z,99720.88
2023-01-19T19:12:40.814Z,99715.81
2023-01-19T19:22:43.260Z,99723.72
2023-01-19T19:32:52.715Z,99726.19
2023-01-19T19:42:56.980Z,99731.38
2023-01-19T19:53:00.497Z,99737.44
2023-01-19T20:03:02.625Z,99753.28
2023-01-19T20:13:07.589Z,99754.66
2023-01-19T20:23:11.196Z,99763.53
2023-01-19T20:33:13.480Z,99761.22
2023-01-19T20:43:15.568Z,99776.28
2023-01-19T20:53:18.850Z,99787.38
2023-01-19T21:03:20.939Z,99799.28
2023-01-19T21:13:24.608Z,99813.88
2023-01-19T21:23:44.695Z,99828.94
2023-01-19T21:33:49.135Z,99835.59
2023-01-19T21:43:52.547Z,99860.53
2023-01-19T21:53:59.664Z,99862.19
2023-01-19T22:04:02.058Z,99875.41
2023-01-19T22:14:04.320Z,99889.31
2023-01-19T22:24:08.590Z,99891.53
2023-01-19T22:34:11.016Z,99892.91
2023-01-19T22:44:20.413Z,99894.88
2023-01-19T22:54:23.306Z,99901.81
2023-01-19T23:04:25.425Z,99905.66
2023-01-19T23:14:29.331Z,99906.00
2023-01-19T23:24:31.467Z,99917.03
2023-01-19T23:34:33.803Z,99919.88
2023-01-19T23:44:36.091Z,99936.50
2023-01-19T23:54:38.169Z,99933.69
